Tabellarische Übersicht vom Sonntag, den 21.10.2018

Oder anderes Datum wählen:






max 17,2°C 95,0% 8,0°C 1030,6hPa 17,0°C 0,0km/h (0Bft) 0,0km/h 0° (N) ∑0,0l/m² 44,000klx ∑0,0min
min 3,6°C 49,0% 2,9°C 1027,7hPa 4,0°C 0,0km/h (0Bft) 0,0km/h 0° (N) ∑0,0l/m² 0,000klx ∑0,0min
Ø 7,4°C 85,0% 4,8°C 1029,4hPa 7,0°C 0,0km/h (0Bft) 0,0km/h 0° (N) ∑0,0l/m² 22,000klx ∑0,0min
Zeit Temperatur Luftfeuchte Taupunkt Luftdruck Windchill Windböen Windgeschwindigkeit Windrichtung Regen Helligkeit Regenzeit
14:15 17,2°C 48,9% 6,3°C 1027,7hPa 17,2°C 0,0km/h (0Bft) 0,0km/h 0,0l/m² 38,275klx 0,0min
14:10 16,6°C 51,3% 6,5°C 1027,8hPa 16,6°C 0,0km/h (0Bft) 0,0km/h 0,0l/m² 38,670klx 0,0min
14:05 16,6°C 50,8% 6,4°C 1027,9hPa 16,6°C 0,0km/h (0Bft) 0,0km/h 0,0l/m² 38,328klx 0,0min
14:00 16,5°C 51,2% 6,4°C 1027,9hPa 16,5°C 0,0km/h (0Bft) 0,0km/h 0,0l/m² 38,935klx 0,0min
13:55 16,3°C 52,1% 6,4°C 1028,0hPa 16,3°C 0,0km/h (0Bft) 0,0km/h 0,0l/m² 39,513klx 0,0min
13:50 16,1°C 52,8% 6,4°C 1028,1hPa 16,1°C 0,0km/h (0Bft) 0,0km/h 0,0l/m² 40,246klx 0,0min
13:45 16,2°C 52,4% 6,4°C 1028,2hPa 16,2°C 0,0km/h (0Bft) 0,0km/h 0,0l/m² 41,254klx 0,0min
13:40 15,8°C 53,7% 6,4°C 1028,2hPa 15,8°C 0,0km/h (0Bft) 0,0km/h 0,0l/m² 41,713klx 0,0min
13:35 16,3°C 52,3% 6,5°C 1028,2hPa 16,3°C 0,0km/h (0Bft) 0,0km/h 0,0l/m² 41,645klx 0,0min
13:30 16,2°C 52,5% 6,5°C 1028,3hPa 16,2°C 0,0km/h (0Bft) 0,0km/h 0,0l/m² 41,760klx 0,0min
13:25 16,2°C 53,2% 6,7°C 1028,4hPa 16,2°C 0,0km/h (0Bft) 0,0km/h 0,0l/m² 42,797klx 0,0min
13:20 15,9°C 54,0% 6,5°C 1028,4hPa 15,9°C 0,0km/h (0Bft) 0,0km/h 0,0l/m² 42,808klx 0,0min
13:15 15,7°C 55,4% 6,8°C 1028,5hPa 15,7°C 0,0km/h (0Bft) 0,0km/h 0,0l/m² 42,381klx 0,0min
13:10 15,5°C 56,6% 6,9°C 1028,6hPa 15,5°C 0,0km/h (0Bft) 0,0km/h 0,0l/m² 43,446klx 0,0min
13:05 14,9°C 57,6% 6,6°C 1028,6hPa 14,9°C 0,0km/h (0Bft) 0,0km/h 0,0l/m² 43,939klx 0,0min
13:00 14,6°C 58,5% 6,5°C 1028,7hPa 14,6°C 0,0km/h (0Bft) 0,0km/h 0,0l/m² 42,703klx 0,0min
12:55 14,5°C 59,4% 6,7°C 1028,7hPa 14,5°C 0,0km/h (0Bft) 0,0km/h 0,0l/m² 44,343klx 0,0min
12:50 14,6°C 60,2% 6,9°C 1028,7hPa 14,6°C 0,0km/h (0Bft) 0,0km/h 0,0l/m² 43,973klx 0,0min
12:45 15,1°C 58,6% 7,1°C 1028,8hPa 15,1°C 0,0km/h (0Bft) 0,0km/h 0,0l/m² 42,499klx 0,0min
12:40 15,0°C 59,7% 7,2°C 1028,8hPa 15,0°C 0,0km/h (0Bft) 0,0km/h 0,0l/m² 42,980klx 0,0min
12:35 15,3°C 58,7% 7,2°C 1028,8hPa 15,3°C 0,0km/h (0Bft) 0,0km/h 0,0l/m² 41,891klx 0,0min
12:30 15,1°C 59,0% 7,1°C 1028,9hPa 15,1°C 0,0km/h (0Bft) 0,0km/h 0,0l/m² 43,042klx 0,0min
12:25 15,1°C 59,2% 7,2°C 1029,0hPa 15,1°C 0,0km/h (0Bft) 0,0km/h 0,0l/m² 42,987klx 0,0min
12:20 14,7°C 61,0% 7,3°C 1029,0hPa 14,7°C 0,0km/h (0Bft) 0,0km/h 0,0l/m² 40,206klx 0,0min
12:15 15,3°C 58,7% 7,2°C 1029,0hPa 15,3°C 0,0km/h (0Bft) 0,0km/h 0,0l/m² 38,985klx 0,0min
12:10 14,8°C 60,9% 7,3°C 1029,1hPa 14,8°C 0,0km/h (0Bft) 0,0km/h 0,0l/m² 38,323klx 0,0min
12:05 15,1°C 60,5% 7,5°C 1029,2hPa 15,1°C 0,0km/h (0Bft) 0,0km/h 0,0l/m² 38,278klx 0,0min
12:00 15,4°C 60,1% 7,7°C 1029,3hPa 15,4°C 0,0km/h (0Bft) 0,0km/h 0,0l/m² 36,533klx 0,0min
11:55 15,1°C 60,8% 7,6°C 1029,3hPa 15,1°C 0,0km/h (0Bft) 0,0km/h 0,0l/m² 36,253klx 0,0min
11:50 14,5°C 63,2% 7,5°C 1029,2hPa 14,5°C 0,0km/h (0Bft) 0,0km/h 0,0l/m² 35,132klx 0,0min
11:45 14,2°C 65,9% 7,9°C 1029,2hPa 14,2°C 0,0km/h (0Bft) 0,0km/h 0,0l/m² 34,162klx 0,0min
11:40 15,0°C 62,8% 8,0°C 1029,2hPa 15,0°C 0,0km/h (0Bft) 0,0km/h 0,0l/m² 32,928klx 0,0min
11:35 14,2°C 65,6% 7,9°C 1029,3hPa 14,2°C 0,0km/h (0Bft) 0,0km/h 0,0l/m² 29,493klx 0,0min
11:30 13,6°C 67,5% 7,7°C 1029,3hPa 13,6°C 0,0km/h (0Bft) 0,0km/h 0,0l/m² 27,634klx 0,0min
11:25 14,0°C 66,9% 7,9°C 1029,3hPa 14,0°C 0,0km/h (0Bft) 0,0km/h 0,0l/m² 25,860klx 0,0min
11:20 13,4°C 68,6% 7,7°C 1029,3hPa 13,4°C 0,0km/h (0Bft) 0,0km/h 0,0l/m² 24,231klx 0,0min
11:15 12,3°C 73,8% 7,8°C 1029,3hPa 12,3°C 0,0km/h (0Bft) 0,0km/h 0,0l/m² 23,066klx 0,0min
11:10 11,6°C 78,6% 8,0°C 1029,3hPa 11,6°C 0,0km/h (0Bft) 0,0km/h 0,0l/m² 22,195klx 0,0min
11:05 11,3°C 78,0% 7,6°C 1029,4hPa 11,3°C 0,0km/h (0Bft) 0,0km/h 0,0l/m² 21,603klx 0,0min
11:00 11,0°C 78,8% 7,5°C 1029,4hPa 11,0°C 0,0km/h (0Bft) 0,0km/h 0,0l/m² 21,025klx 0,0min
10:55 10,9°C 78,6% 7,3°C 1029,4hPa 10,9°C 0,0km/h (0Bft) 0,0km/h 0,0l/m² 20,641klx 0,0min
10:50 11,4°C 77,5% 7,6°C 1029,4hPa 11,4°C 0,0km/h (0Bft) 0,0km/h 0,0l/m² 20,069klx 0,0min
10:45 10,0°C 82,0% 7,1°C 1029,4hPa 10,0°C 0,0km/h (0Bft) 0,0km/h 0,0l/m² 19,391klx 0,0min
10:40 9,4°C 83,2% 6,7°C 1029,4hPa 9,4°C 0,0km/h (0Bft) 0,0km/h 0,0l/m² 18,616klx 0,0min
10:35 9,1°C 84,5% 6,6°C 1029,4hPa 9,1°C 0,0km/h (0Bft) 0,0km/h 0,0l/m² 18,124klx 0,0min
10:30 8,6°C 86,0% 6,3°C 1029,4hPa 8,6°C 0,0km/h (0Bft) 0,0km/h 0,0l/m² 17,513klx 0,0min
10:25 8,3°C 86,8% 6,2°C 1029,4hPa 8,3°C 0,0km/h (0Bft) 0,0km/h 0,0l/m² 16,873klx 0,0min
10:20 8,1°C 87,8% 6,2°C 1029,4hPa 8,1°C 0,0km/h (0Bft) 0,0km/h 0,0l/m² 16,457klx 0,0min
10:15 7,7°C 88,9% 6,0°C 1029,4hPa 7,7°C 0,0km/h (0Bft) 0,0km/h 0,0l/m² 15,755klx 0,0min
10:10 7,2°C 90,3% 5,7°C 1029,4hPa 7,2°C 0,0km/h (0Bft) 0,0km/h 0,0l/m² 15,026klx 0,0min
10:05 6,8°C 90,6% 5,4°C 1029,4hPa 6,8°C 0,0km/h (0Bft) 0,0km/h 0,0l/m² 14,424klx 0,0min
10:00 6,6°C 91,0% 5,2°C 1029,4hPa 6,6°C 0,0km/h (0Bft) 0,0km/h 0,0l/m² 13,796klx 0,0min
09:55 6,4°C 92,1% 5,2°C 1029,4hPa 6,4°C 0,0km/h (0Bft) 0,0km/h 0,0l/m² 13,010klx 0,0min
09:50 6,0°C 92,8% 4,9°C 1029,4hPa 6,0°C 0,0km/h (0Bft) 0,0km/h 0,0l/m² 12,315klx 0,0min
09:45 5,6°C 92,9% 4,6°C 1029,4hPa 5,6°C 0,0km/h (0Bft) 0,0km/h 0,0l/m² 11,756klx 0,0min
09:40 5,6°C 92,4% 4,4°C 1029,4hPa 5,6°C 0,0km/h (0Bft) 0,0km/h 0,0l/m² 11,192klx 0,0min
09:35 5,5°C 92,9% 4,4°C 1029,4hPa 5,5°C 0,0km/h (0Bft) 0,0km/h 0,0l/m² 10,602klx 0,0min
09:30 5,3°C 93,3% 4,3°C 1029,3hPa 5,3°C 0,0km/h (0Bft) 0,0km/h 0,0l/m² 9,983klx 0,0min
09:25 5,1°C 93,8% 4,1°C 1029,3hPa 5,1°C 0,0km/h (0Bft) 0,0km/h 0,0l/m² 9,396klx 0,0min
09:20 4,9°C 94,2% 4,0°C 1029,3hPa 4,9°C 0,0km/h (0Bft) 0,0km/h 0,0l/m² 8,864klx 0,0min
09:15 4,7°C 94,4% 3,9°C 1029,3hPa 4,7°C 0,0km/h (0Bft) 0,0km/h 0,0l/m² 8,208klx 0,0min
09:10 4,6°C 94,6% 3,8°C 1029,3hPa 4,6°C 0,0km/h (0Bft) 0,0km/h 0,0l/m² 7,425klx 0,0min
09:05 4,5°C 94,8% 3,7°C 1029,2hPa 4,5°C 0,0km/h (0Bft) 0,0km/h 0,0l/m² 6,691klx 0,0min
09:00 4,2°C 94,9% 3,5°C 1029,2hPa 4,2°C 0,0km/h (0Bft) 0,0km/h 0,0l/m² 5,955klx 0,0min
08:55 4,1°C 94,9% 3,4°C 1029,2hPa 4,1°C 0,0km/h (0Bft) 0,0km/h 0,0l/m² 5,298klx 0,0min
08:50 4,0°C 94,9% 3,3°C 1029,2hPa 4,0°C 0,0km/h (0Bft) 0,0km/h 0,0l/m² 4,620klx 0,0min
08:45 4,0°C 95,0% 3,3°C 1029,1hPa 4,0°C 0,0km/h (0Bft) 0,0km/h 0,0l/m² 3,437klx 0,0min
08:40 3,9°C 94,9% 3,1°C 1029,1hPa 3,9°C 0,0km/h (0Bft) 0,0km/h 0,0l/m² 2,928klx 0,0min
08:35 3,9°C 94,8% 3,1°C 1029,0hPa 3,9°C 0,0km/h (0Bft) 0,0km/h 0,0l/m² 2,497klx 0,0min
08:30 3,9°C 94,9% 3,2°C 1029,0hPa 3,9°C 0,0km/h (0Bft) 0,0km/h 0,0l/m² 2,088klx 0,0min
08:25 3,8°C 94,8% 3,1°C 1029,0hPa 3,8°C 0,0km/h (0Bft) 0,0km/h 0,0l/m² 1,630klx 0,0min
08:20 4,0°C 94,9% 3,2°C 1028,9hPa 4,0°C 0,0km/h (0Bft) 0,0km/h 0,0l/m² 1,269klx 0,0min
08:15 3,9°C 95,0% 3,2°C 1028,8hPa 3,9°C 0,0km/h (0Bft) 0,0km/h 0,0l/m² 0,938klx 0,0min
08:10 3,9°C 95,1% 3,2°C 1028,8hPa 3,9°C 0,0km/h (0Bft) 0,0km/h 0,0l/m² 0,660klx 0,0min
08:05 3,8°C 95,1% 3,0°C 1028,8hPa 3,8°C 0,0km/h (0Bft) 0,0km/h 0,0l/m² 0,434klx 0,0min
08:00 3,6°C 95,0% 2,9°C 1028,8hPa 3,6°C 0,0km/h (0Bft) 0,0km/h 0,0l/m² 0,258klx 0,0min
07:55 3,7°C 94,8% 2,9°C 1028,8hPa 3,7°C 0,0km/h (0Bft) 0,0km/h 0,0l/m² 0,141klx 0,0min
07:50 3,8°C 94,8% 3,1°C 1028,8hPa 3,8°C 0,0km/h (0Bft) 0,0km/h 0,0l/m² 0,068klx 0,0min
07:45 3,8°C 94,9% 3,1°C 1028,8hPa 3,8°C 0,0km/h (0Bft) 0,0km/h 0,0l/m² 0,029klx 0,0min
07:40 3,8°C 94,8% 3,1°C 1028,8hPa 3,8°C 0,0km/h (0Bft) 0,0km/h 0,0l/m² 0,011klx 0,0min
07:35 3,9°C 94,8% 3,1°C 1028,8hPa 3,9°C 0,0km/h (0Bft) 0,0km/h 0,0l/m² 0,004klx 0,0min
07:30 3,9°C 94,7% 3,2°C 1028,8hPa 3,9°C 0,0km/h (0Bft) 0,0km/h 0,0l/m² 0,002klx 0,0min
07:25 3,9°C 94,6% 3,1°C 1028,9hPa 3,9°C 0,0km/h (0Bft) 0,0km/h 0,0l/m² 0,001klx 0,0min
07:20 4,0°C 94,6% 3,2°C 1028,9hPa 4,0°C 0,0km/h (0Bft) 0,0km/h 0,0l/m² 0,001klx 0,0min
07:15 4,0°C 94,7% 3,3°C 1028,9hPa 4,0°C 0,0km/h (0Bft) 0,0km/h 0,0l/m² 0,000klx 0,0min
07:10 4,0°C 94,7% 3,2°C 1028,9hPa 4,0°C 0,0km/h (0Bft) 0,0km/h 0,0l/m² 0,000klx 0,0min
07:05 3,9°C 94,8% 3,2°C 1028,9hPa 3,9°C 0,0km/h (0Bft) 0,0km/h 0,0l/m² 0,000klx 0,0min
07:00 3,9°C 94,7% 3,1°C 1028,8hPa 3,9°C 0,0km/h (0Bft) 0,0km/h 0,0l/m² 0,000klx 0,0min
06:55 3,8°C 94,7% 3,1°C 1028,8hPa 3,8°C 0,0km/h (0Bft) 0,0km/h 0,0l/m² 0,000klx 0,0min
06:50 3,9°C 94,6% 3,1°C 1028,9hPa 3,9°C 0,0km/h (0Bft) 0,0km/h 0,0l/m² 0,000klx 0,0min
06:45 4,0°C 94,6% 3,2°C 1029,0hPa 4,0°C 0,0km/h (0Bft) 0,0km/h 0,0l/m² 0,000klx 0,0min
06:40 4,0°C 94,6% 3,2°C 1029,0hPa 4,0°C 0,0km/h (0Bft) 0,0km/h 0,0l/m² 0,000klx 0,0min
06:35 4,0°C 94,3% 3,2°C 1029,1hPa 4,0°C 0,0km/h (0Bft) 0,0km/h 0,0l/m² 0,000klx 0,0min
06:30 4,2°C 94,3% 3,3°C 1029,1hPa 4,2°C 0,0km/h (0Bft) 0,0km/h 0,0l/m² 0,000klx 0,0min
06:25 4,2°C 94,4% 3,4°C 1029,1hPa 4,2°C 0,0km/h (0Bft) 0,0km/h 0,0l/m² 0,000klx 0,0min
06:20 4,2°C 94,4% 3,4°C 1029,2hPa 4,2°C 0,0km/h (0Bft) 0,0km/h 0,0l/m² 0,000klx 0,0min
06:15 4,2°C 94,4% 3,4°C 1029,2hPa 4,2°C 0,0km/h (0Bft) 0,0km/h 0,0l/m² 0,000klx 0,0min
06:10 4,2°C 94,3% 3,4°C 1029,2hPa 4,2°C 0,0km/h (0Bft) 0,0km/h 0,0l/m² 0,000klx 0,0min
06:05 4,3°C 94,4% 3,5°C 1029,2hPa 4,3°C 0,0km/h (0Bft) 0,0km/h 0,0l/m² 0,000klx 0,0min
06:00 4,3°C 94,6% 3,5°C 1029,3hPa 4,3°C 0,0km/h (0Bft) 0,0km/h 0,0l/m² 0,000klx 0,0min
05:55 4,2°C 94,4% 3,4°C 1029,3hPa 4,2°C 0,0km/h (0Bft) 0,0km/h 0,0l/m² 0,000klx 0,0min
05:50 4,2°C 94,2% 3,4°C 1029,2hPa 4,2°C 0,0km/h (0Bft) 0,0km/h 0,0l/m² 0,000klx 0,0min
05:45 4,3°C 94,1% 3,4°C 1029,3hPa 4,3°C 0,0km/h (0Bft) 0,0km/h 0,0l/m² 0,000klx 0,0min
05:40 4,5°C 94,4% 3,7°C 1029,3hPa 4,5°C 0,0km/h (0Bft) 0,0km/h 0,0l/m² 0,000klx 0,0min
05:35 4,4°C 94,4% 3,5°C 1029,3hPa 4,4°C 0,0km/h (0Bft) 0,0km/h 0,0l/m² 0,000klx 0,0min
05:30 4,3°C 94,2% 3,5°C 1029,3hPa 4,3°C 0,0km/h (0Bft) 0,0km/h 0,0l/m² 0,000klx 0,0min
05:25 4,3°C 94,1% 3,5°C 1029,4hPa 4,3°C 0,0km/h (0Bft) 0,0km/h 0,0l/m² 0,000klx 0,0min
05:20 4,4°C 94,0% 3,5°C 1029,3hPa 4,4°C 0,0km/h (0Bft) 0,0km/h 0,0l/m² 0,000klx 0,0min
05:15 4,5°C 94,2% 3,6°C 1029,3hPa 4,5°C 0,0km/h (0Bft) 0,0km/h 0,0l/m² 0,000klx 0,0min
05:10 4,4°C 94,2% 3,6°C 1029,3hPa 4,4°C 0,0km/h (0Bft) 0,0km/h 0,0l/m² 0,000klx 0,0min
05:05 4,4°C 94,2% 3,6°C 1029,5hPa 4,4°C 0,0km/h (0Bft) 0,0km/h 0,0l/m² 0,000klx 0,0min
05:00 4,4°C 94,1% 3,5°C 1029,5hPa 4,4°C 0,0km/h (0Bft) 0,0km/h 0,0l/m² 0,000klx 0,0min
04:55 4,4°C 94,1% 3,5°C 1029,5hPa 4,4°C 0,0km/h (0Bft) 0,0km/h 0,0l/m² 0,000klx 0,0min
04:50 4,5°C 93,9% 3,6°C 1029,5hPa 4,5°C 0,0km/h (0Bft) 0,0km/h 0,0l/m² 0,000klx 0,0min
04:45 4,4°C 94,0% 3,5°C 1029,6hPa 4,4°C 0,0km/h (0Bft) 0,0km/h 0,0l/m² 0,000klx 0,0min
04:40 4,4°C 93,9% 3,5°C 1029,7hPa 4,4°C 0,0km/h (0Bft) 0,0km/h 0,0l/m² 0,000klx 0,0min
04:35 4,6°C 93,7% 3,6°C 1029,8hPa 4,6°C 0,0km/h (0Bft) 0,0km/h 0,0l/m² 0,000klx 0,0min
04:30 4,6°C 93,8% 3,7°C 1029,9hPa 4,6°C 0,0km/h (0Bft) 0,0km/h 0,0l/m² 0,000klx 0,0min
04:25 4,6°C 93,7% 3,7°C 1029,9hPa 4,6°C 0,0km/h (0Bft) 0,0km/h 0,0l/m² 0,000klx 0,0min
04:20 4,7°C 93,6% 3,7°C 1029,9hPa 4,7°C 0,0km/h (0Bft) 0,0km/h 0,0l/m² 0,000klx 0,0min
04:15 4,7°C 93,7% 3,8°C 1029,8hPa 4,7°C 0,0km/h (0Bft) 0,0km/h 0,0l/m² 0,000klx 0,0min
04:10 4,7°C 93,8% 3,7°C 1029,8hPa 4,7°C 0,0km/h (0Bft) 0,0km/h 0,0l/m² 0,000klx 0,0min
04:05 4,7°C 93,9% 3,8°C 1029,8hPa 4,7°C 0,0km/h (0Bft) 0,0km/h 0,0l/m² 0,000klx 0,0min
04:00 4,6°C 93,9% 3,7°C 1029,9hPa 4,6°C 0,0km/h (0Bft) 0,0km/h 0,0l/m² 0,000klx 0,0min
03:55 4,6°C 93,8% 3,7°C 1029,9hPa 4,6°C 0,0km/h (0Bft) 0,0km/h 0,0l/m² 0,000klx 0,0min
03:50 4,6°C 93,9% 3,7°C 1029,9hPa 4,6°C 0,0km/h (0Bft) 0,0km/h 0,0l/m² 0,000klx 0,0min
03:45 4,6°C 93,9% 3,7°C 1029,9hPa 4,6°C 0,0km/h (0Bft) 0,0km/h 0,0l/m² 0,000klx 0,0min
03:40 4,6°C 93,9% 3,7°C 1029,9hPa 4,6°C 0,0km/h (0Bft) 0,0km/h 0,0l/m² 0,000klx 0,0min
03:35 4,7°C 93,8% 3,8°C 1029,9hPa 4,7°C 0,0km/h (0Bft) 0,0km/h 0,0l/m² 0,000klx 0,0min
03:30 4,7°C 93,6% 3,8°C 1029,8hPa 4,7°C 0,0km/h (0Bft) 0,0km/h 0,0l/m² 0,000klx 0,0min
03:25 4,9°C 93,4% 3,9°C 1029,8hPa 4,9°C 0,0km/h (0Bft) 0,0km/h 0,0l/m² 0,000klx 0,0min
03:20 5,0°C 93,6% 4,0°C 1029,8hPa 5,0°C 0,0km/h (0Bft) 0,0km/h 0,0l/m² 0,000klx 0,0min
03:15 5,0°C 93,6% 4,0°C 1029,7hPa 5,0°C 0,0km/h (0Bft) 0,0km/h 0,0l/m² 0,000klx 0,0min
03:10 5,0°C 93,4% 4,0°C 1029,6hPa 5,0°C 0,0km/h (0Bft) 0,0km/h 0,0l/m² 0,000klx 0,0min
03:05 5,0°C 93,5% 4,1°C 1029,7hPa 5,0°C 0,0km/h (0Bft) 0,0km/h 0,0l/m² 0,000klx 0,0min
03:00 5,0°C 93,5% 4,1°C 1029,7hPa 5,0°C 0,0km/h (0Bft) 0,0km/h 0,0l/m² 0,000klx 0,0min
02:55 5,1°C 93,4% 4,1°C 1029,7hPa 5,1°C 0,0km/h (0Bft) 0,0km/h 0,0l/m² 0,000klx 0,0min
02:50 5,1°C 93,5% 4,1°C 1029,8hPa 5,1°C 0,0km/h (0Bft) 0,0km/h 0,0l/m² 0,000klx 0,0min
02:45 5,1°C 93,5% 4,2°C 1029,9hPa 5,1°C 0,0km/h (0Bft) 0,0km/h 0,0l/m² 0,000klx 0,0min
02:40 5,1°C 93,6% 4,1°C 1029,9hPa 5,1°C 0,0km/h (0Bft) 0,0km/h 0,0l/m² 0,000klx 0,0min
02:35 5,2°C 93,6% 4,2°C 1029,9hPa 5,2°C 0,0km/h (0Bft) 0,0km/h 0,0l/m² 0,000klx 0,0min
02:30 5,2°C 93,6% 4,2°C 1029,9hPa 5,2°C 0,0km/h (0Bft) 0,0km/h 0,0l/m² 0,000klx 0,0min
02:25 5,2°C 93,6% 4,3°C 1030,0hPa 5,2°C 0,0km/h (0Bft) 0,0km/h 0,0l/m² 0,000klx 0,0min
02:20 5,3°C 93,6% 4,3°C 1030,0hPa 5,3°C 0,0km/h (0Bft) 0,0km/h 0,0l/m² 0,000klx 0,0min
02:15 5,3°C 93,6% 4,3°C 1030,0hPa 5,3°C 0,0km/h (0Bft) 0,0km/h 0,0l/m² 0,000klx 0,0min
02:10 5,2°C 93,6% 4,3°C 1029,9hPa 5,2°C 0,0km/h (0Bft) 0,0km/h 0,0l/m² 0,000klx 0,0min
02:05 5,3°C 93,5% 4,3°C 1030,0hPa 5,3°C 0,0km/h (0Bft) 0,0km/h 0,0l/m² 0,000klx 0,0min
02:00 5,3°C 93,4% 4,4°C 1030,0hPa 5,3°C 0,0km/h (0Bft) 0,0km/h 0,0l/m² 0,000klx 0,0min
01:55 5,4°C 93,2% 4,3°C 1030,0hPa 5,4°C 0,0km/h (0Bft) 0,0km/h 0,0l/m² 0,000klx 0,0min
01:50 5,5°C 93,1% 4,4°C 1030,0hPa 5,5°C 0,0km/h (0Bft) 0,0km/h 0,0l/m² 0,000klx 0,0min
01:45 5,6°C 93,1% 4,5°C 1030,0hPa 5,6°C 0,0km/h (0Bft) 0,0km/h 0,0l/m² 0,000klx 0,0min
01:40 5,6°C 93,4% 4,6°C 1030,1hPa 5,6°C 0,0km/h (0Bft) 0,0km/h 0,0l/m² 0,000klx 0,0min
01:35 5,6°C 93,4% 4,6°C 1030,1hPa 5,6°C 0,0km/h (0Bft) 0,0km/h 0,0l/m² 0,000klx 0,0min
01:30 5,5°C 93,4% 4,5°C 1030,1hPa 5,5°C 0,0km/h (0Bft) 0,0km/h 0,0l/m² 0,000klx 0,0min
01:25 5,5°C 93,3% 4,5°C 1030,2hPa 5,5°C 0,0km/h (0Bft) 0,0km/h 0,0l/m² 0,000klx 0,0min
01:20 5,6°C 93,3% 4,6°C 1030,2hPa 5,6°C 0,0km/h (0Bft) 0,0km/h 0,0l/m² 0,000klx 0,0min
01:15 5,6°C 93,3% 4,6°C 1030,2hPa 5,6°C 0,0km/h (0Bft) 0,0km/h 0,0l/m² 0,000klx 0,0min
01:10 5,6°C 93,2% 4,6°C 1030,3hPa 5,6°C 0,0km/h (0Bft) 0,0km/h 0,0l/m² 0,000klx 0,0min
01:05 5,6°C 93,1% 4,6°C 1030,3hPa 5,6°C 0,0km/h (0Bft) 0,0km/h 0,0l/m² 0,000klx 0,0min
01:00 5,7°C 93,1% 4,7°C 1030,2hPa 5,7°C 0,0km/h (0Bft) 0,0km/h 0,0l/m² 0,000klx 0,0min
00:55 5,7°C 93,0% 4,7°C 1030,3hPa 5,7°C 0,0km/h (0Bft) 0,0km/h 0,0l/m² 0,000klx 0,0min
00:50 5,8°C 93,0% 4,8°C 1030,3hPa 5,8°C 0,0km/h (0Bft) 0,0km/h 0,0l/m² 0,000klx 0,0min
00:45 5,9°C 93,3% 4,9°C 1030,2hPa 5,9°C 0,0km/h (0Bft) 0,0km/h 0,0l/m² 0,000klx 0,0min
00:40 5,8°C 93,3% 4,8°C 1030,3hPa 5,8°C 0,0km/h (0Bft) 0,0km/h 0,0l/m² 0,000klx 0,0min
00:35 5,7°C 93,3% 4,7°C 1030,4hPa 5,7°C 0,0km/h (0Bft) 0,0km/h 0,0l/m² 0,000klx 0,0min
00:30 5,8°C 93,2% 4,7°C 1030,4hPa 5,8°C 0,0km/h (0Bft) 0,0km/h 0,0l/m² 0,000klx 0,0min
00:25 5,8°C 93,0% 4,8°C 1030,5hPa 5,8°C 0,0km/h (0Bft) 0,0km/h 0,0l/m² 0,000klx 0,0min
00:20 5,9°C 93,1% 4,9°C 1030,5hPa 5,9°C 0,0km/h (0Bft) 0,0km/h 0,0l/m² 0,000klx 0,0min
00:15 5,9°C 93,0% 4,9°C 1030,5hPa 5,9°C 0,0km/h (0Bft) 0,0km/h 0,0l/m² 0,000klx 0,0min
00:10 5,9°C 92,7% 4,8°C 1030,6hPa 5,9°C 0,0km/h (0Bft) 0,0km/h 0,0l/m² 0,000klx 0,0min
00:05 6,1°C 92,5% 5,0°C 1030,6hPa 6,1°C 0,0km/h (0Bft) 0,0km/h 0,0l/m² 0,000klx 0,0min
00:00 6,3°C 92,2% 5,1°C 1030,6hPa 6,3°C 0,0km/h (0Bft) 0,0km/h 0,0l/m² 0,000klx 0,0min

Aktuelle Wetterdaten

21.10.2018 14:15 Uhr